METAR Data
IDs: Format: Raw Decoded Include TAF

Data at: 1240 UTC 16 Oct 2018

PANT 161153Z AUTO 00000KT 10SM CLR 06/06 A3023 RMK SLP236 T00610056 10106 20044 58003 TSNO VIA AUTODIAL
PANT 161053Z AUTO 30003KT 10SM CLR 04/04 A3023 RMK SLP238 T00440039 TSNO VIA AUTODIAL
PANT 160953Z AUTO 00000KT 10SM CLR 09/06 A3024 RMK SLP240 T00890056 TSNO VIA AUTODIAL
PANT 160853Z AUTO 13005KT 10SM CLR 10/05 A3024 RMK SLP239 T01000050 401560061 58008 TSNO VIA AUTODIAL
PANT 160753Z AUTO 15003KT 10SM CLR 08/06 A3025 RMK SLP244 T00830061 TSNO VIA AUTODIAL
PANT 160653Z AUTO 00000KT 10SM CLR 08/07 A3026 RMK SLP247 T00830067 TSNO VIA AUTODIAL
PANT 160553Z AUTO 14004KT 10SM CLR 08/06 A3026 RMK SLP248 T00780056 10144 20061 56007 TSNO VIA AUTODIAL
PANT 160453Z AUTO 00000KT 10SM CLR 07/05 A3027 RMK SLP250 T00670050 TSNO VIA AUTODIAL
PANT 160353Z AUTO 14003KT 10SM CLR 09/04 A3027 RMK SLP250 T00890044 TSNO VIA AUTODIAL
PANT 160253Z AUTO 12004KT 10SM CLR 11/04 A3028 RMK SLP255 T01060039 56009 TSNO VIA AUTODIAL
PANT 160153Z AUTO 14005KT 10SM CLR 13/02 A3029 RMK SLP258 T01280017 TSNO VIA AUTODIAL
PANT 160053Z AUTO 14006KT 10SM CLR 14/01 A3030 RMK SLP260 T01390011 TSNO VIA AUTODIAL
PANT 152353Z AUTO 14007KT 10SM CLR 14/01 A3031 RMK SLP265 T01440011 10156 20111 58008 TSNO VIA AUTODIAL
PANT 152053Z AUTO 13010KT 10SM CLR 14/02 A3034 RMK SLP273 T01390022 57001 TSNO VIA AUTODIAL
PANT 151953Z AUTO 13008KT 10SM CLR 13/03 A3034 RMK SLP273 T01330033 TSNO VIA AUTODIAL
PANT 151853Z AUTO 14004KT 10SM CLR 12/06 A3034 RMK SLP275 T01220056 TSNO VIA AUTODIAL
PANT 151753Z AUTO VRB04KT 10SM CLR 11/07 A3034 RMK SLP275 T01110067 10111 20094 51007 TSNO VIA AUTODIAL
PANT 151708Z AUTO VRB05KT 10SM FEW019 10/07 A3033 RMK T01000067 TSNO VIA AUTODIAL
PANT 151653Z AUTO 13006KT 10SM BKN019 10/07 A3033 RMK SLP273 T01000072 TSNO VIA AUTODIAL
PANT 151553Z AUTO 14007KT 10SM BKN018 09/07 A3033 RMK SLP270 T00940072 TSNO VIA AUTODIAL
PANT 151453Z AUTO 14008KT 10SM OVC018 10/07 A3032 RMK SLP267 T01000067 56002 TSNO VIA AUTODIAL
PANT 151353Z AUTO 14009KT 10SM OVC018 10/07 A3032 RMK SLP268 T01000067 TSNO $ VIA AUTODIAL
PANT 151253Z AUTO 14007KT 10SM OVC017 10/07 A3032 RMK SLP268 T01000067 TSNO $ VIA AUTODIAL
PANT 151213Z AUTO 14007KT 10SM BKN017 10/07 A3032 RMK T01000067 TSNO $ VIA AUTODIAL
PANT 151153Z AUTO 14008KT 10SM FEW017 10/06 A3032 RMK SLP269 T01000061 10111 20100 51005 TSNO $ VIA AUTODIAL
PANT 151053Z AUTO 15009KT 10SM CLR 10/06 A3032 RMK SLP269 T01000061 TSNO $ VIA AUTODIAL
PANT 150953Z AUTO 14008KT 10SM CLR 11/06 A3032 RMK SLP269 T01060056 TSNO $ VIA AUTODIAL
PANT 150853Z AUTO 14008G19KT 10SM CLR 11/05 A3031 RMK SLP265 T01110050 401110022 55000 TSNO $ VIA AUTODIAL
PANT 150753Z AUTO 14009KT 10SM CLR 11/06 A3031 RMK SLP264 T01110056 TSNO $ VIA AUTODIAL
PANT 150653Z AUTO 14008KT 10SM CLR 11/06 A3031 RMK SLP265 T01110056 TSNO $ VIA AUTODIAL
PANT 150553Z AUTO 14009KT 10SM CLR 11/07 A3031 RMK SLP265 T01110067 10111 20100 55005 TSNO $ VIA AUTODIAL
PANT 150453Z AUTO 14009KT 10SM CLR 11/08 A3031 RMK SLP264 T01060078 TSNO $ VIA AUTODIAL
PANT 150401Z AUTO 15005KT 10SM FEW011 10/09 A3031 RMK T01000089 TSNO $ VIA AUTODIAL
PANT 150353Z AUTO 14006KT 10SM BKN011 10/09 A3031 RMK SLP266 T01000089 TSNO $ VIA AUTODIAL
PANT 150253Z AUTO 12006KT 10SM OVC012 11/09 A3033 RMK SLP270 T01060089 55003 TSNO $ VIA AUTODIAL
PANT 150153Z AUTO 13008KT 10SM OVC013 10/09 A3033 RMK SLP270 T01000094 TSNO $ VIA AUTODIAL
PANT 150136Z AUTO 14009KT 10SM BKN010 OVC016 11/09 A3033 RMK CIG 008V013 T01060094 TSNO $ VIA AUTODIAL
PANT 150053Z AUTO 13008KT 10SM OVC009 11/09 A3033 RMK SLP270 T01060094 TSNO $ VIA AUTODIAL